Time,TemperatureF,DewpointF,PressureIn,WindDirection,WindDirectionDegrees,WindSpeedMPH,WindSpeedGustMPH,Humidity,HourlyPrecipIn,Conditions,Clouds,dailyrainin,SolarRadiationWatts/m^2,SoftwareType,DateUTC
2013-01-28 00:21:00,18.0,15.0,-100.00,NW,308,1.0,7.0,86,0.00,,,0.00,0.000000,,2013-01-28 07:21:00,
2013-01-28 00:31:00,18.0,15.0,-100.00,NW,308,1.0,7.0,86,0.00,,,0.00,0.000000,,2013-01-28 07:31:00,
2013-01-28 00:41:00,18.0,15.0,-100.00,NW,308,1.0,7.0,86,0.00,,,0.00,0.000000,,2013-01-28 07:41:00,
2013-01-28 00:51:00,18.0,15.0,-100.00,NW,308,1.0,7.0,86,0.00,,,0.00,0.000000,,2013-01-28 07:51:00,
2013-01-28 00:52:00,17.0,13.0,-100.00,WNW,301,0.0,6.0,84,0.00,,,0.00,0.000000,,2013-01-28 07:52:00,
2013-01-28 01:21:00,17.0,13.0,-100.00,WNW,301,0.0,6.0,84,0.00,,,0.00,0.000000,,2013-01-28 08:21:00,
2013-01-28 01:32:00,17.0,13.0,-100.00,WNW,301,0.0,6.0,84,0.00,,,0.00,0.000000,,2013-01-28 08:32:00,
2013-01-28 01:42:00,17.0,13.0,-100.00,WNW,301,0.0,6.0,84,0.00,,,0.00,0.000000,,2013-01-28 08:42:00,
2013-01-28 02:11:00,15.0,11.0,-100.00,WNW,295,2.0,5.0,83,0.00,,,0.00,0.000000,,2013-01-28 09:11:00,
2013-01-28 02:21:00,15.0,11.0,-100.00,WNW,295,2.0,5.0,83,0.00,,,0.00,0.000000,,2013-01-28 09:21:00,
2013-01-28 02:32:00,15.0,11.0,-100.00,WNW,295,2.0,5.0,83,0.00,,,0.00,0.000000,,2013-01-28 09:32:00,
2013-01-28 02:41:00,15.0,11.0,-100.00,WNW,295,2.0,5.0,83,0.00,,,0.00,0.000000,,2013-01-28 09:41:00,
2013-01-28 02:51:00,15.0,11.0,-100.00,WNW,295,2.0,5.0,83,0.00,,,0.00,0.000000,,2013-01-28 09:51:00,
2013-01-28 03:21:00,15.0,11.0,-100.00,WNW,291,0.0,5.0,84,0.00,,,0.00,0.000000,,2013-01-28 10:21:00,
2013-01-28 03:31:00,15.0,11.0,-100.00,WNW,291,0.0,5.0,84,0.00,,,0.00,0.000000,,2013-01-28 10:31:00,
2013-01-28 03:41:00,15.0,11.0,-100.00,WNW,291,0.0,5.0,84,0.00,,,0.00,0.000000,,2013-01-28 10:41:00,
2013-01-28 03:51:00,15.0,11.0,-100.00,WNW,291,0.0,5.0,84,0.00,,,0.00,0.000000,,2013-01-28 10:51:00,
2013-01-28 03:52:00,15.0,11.0,-100.00,NNW,328,0.0,5.0,84,0.00,,,0.00,0.000000,,2013-01-28 10:52:00,
2013-01-28 04:11:00,15.0,11.0,-100.00,NNW,328,0.0,5.0,84,0.00,,,0.00,0.000000,,2013-01-28 11:11:00,
2013-01-28 04:22:00,15.0,11.0,-100.00,NNW,328,0.0,5.0,84,0.00,,,0.00,0.000000,,2013-01-28 11:22:00,
2013-01-28 04:32:00,15.0,11.0,-100.00,NNW,328,0.0,5.0,84,0.00,,,0.00,0.000000,,2013-01-28 11:32:00,
2013-01-28 04:42:00,15.0,11.0,-100.00,NNW,328,0.0,5.0,84,0.00,,,0.00,0.000000,,2013-01-28 11:42:00,
2013-01-28 04:52:00,15.0,11.0,-100.00,NW,315,0.0,4.0,83,0.00,,,0.00,0.000000,,2013-01-28 11:52:00,
2013-01-28 05:11:00,15.0,11.0,-100.00,NW,315,0.0,4.0,83,0.00,,,0.00,0.000000,,2013-01-28 12:11:00,
2013-01-28 05:23:00,15.0,11.0,-100.00,NW,315,0.0,4.0,83,0.00,,,0.00,0.000000,,2013-01-28 12:23:00,
2013-01-28 05:32:00,15.0,11.0,-100.00,NW,315,0.0,4.0,83,0.00,,,0.00,0.000000,,2013-01-28 12:32:00,
2013-01-28 05:42:00,15.0,11.0,-100.00,NW,315,0.0,4.0,83,0.00,,,0.00,0.000000,,2013-01-28 12:42:00,
2013-01-28 05:52:00,14.0,10.0,-100.00,WNW,292,1.0,6.0,82,0.00,,,0.00,0.000000,,2013-01-28 12:52:00,
2013-01-28 06:22:00,14.0,10.0,-100.00,WNW,292,1.0,6.0,82,0.00,,,0.00,0.000000,,2013-01-28 13:22:00,
2013-01-28 06:33:00,14.0,10.0,-100.00,WNW,292,1.0,6.0,82,0.00,,,0.00,0.000000,,2013-01-28 13:33:00,
2013-01-28 06:42:00,14.0,10.0,-100.00,WNW,292,1.0,6.0,82,0.00,,,0.00,0.000000,,2013-01-28 13:42:00,
2013-01-28 06:52:00,14.0,10.0,-100.00,SW,214,0.0,4.0,82,0.00,,,0.00,0.000000,,2013-01-28 13:52:00,
2013-01-28 07:12:00,14.0,10.0,-100.00,SW,214,0.0,4.0,82,0.00,,,0.00,0.000000,,2013-01-28 14:12:00,
2013-01-28 07:22:00,14.0,10.0,-100.00,SW,214,0.0,4.0,82,0.00,,,0.00,0.000000,,2013-01-28 14:22:00,
2013-01-28 07:32:00,14.0,10.0,-100.00,SW,214,0.0,4.0,82,0.00,,,0.00,0.000000,,2013-01-28 14:32:00,
2013-01-28 07:42:00,14.0,10.0,-100.00,SW,214,0.0,4.0,82,0.00,,,0.00,0.000000,,2013-01-28 14:42:00,
2013-01-28 07:52:00,12.0,7.0,-100.00,NW,308,0.0,3.0,81,0.00,,,0.00,0.000000,,2013-01-28 14:52:00,
2013-01-28 08:23:00,12.0,7.0,-100.00,NW,308,0.0,3.0,81,0.00,,,0.00,0.000000,,2013-01-28 15:23:00,
2013-01-28 08:33:00,12.0,7.0,-100.00,NW,308,0.0,3.0,81,0.00,,,0.00,0.000000,,2013-01-28 15:33:00,
2013-01-28 08:42:00,12.0,7.0,-100.00,NW,308,0.0,3.0,81,0.00,,,0.00,0.000000,,2013-01-28 15:42:00,
2013-01-28 08:52:00,15.0,10.0,-100.00,ESE,120,0.0,4.0,81,0.00,,,-99.99,10.000000,,2013-01-28 15:52:00,
2013-01-28 09:22:00,15.0,10.0,-100.00,ESE,120,0.0,4.0,81,0.00,,,-99.99,10.000000,,2013-01-28 16:22:00,
2013-01-28 09:32:00,15.0,10.0,-100.00,ESE,120,0.0,4.0,81,0.00,,,-99.99,10.000000,,2013-01-28 16:32:00,
2013-01-28 09:42:00,15.0,10.0,-100.00,ESE,120,0.0,4.0,81,0.00,,,-99.99,10.000000,,2013-01-28 16:42:00,
2013-01-28 09:52:00,20.0,13.0,-100.00,WNW,293,0.0,3.0,75,0.00,,,0.00,34.000000,,2013-01-28 16:52:00,
2013-01-28 10:12:00,20.0,13.0,-100.00,WNW,293,0.0,3.0,75,0.00,,,0.00,34.000000,,2013-01-28 17:12:00,
2013-01-28 10:22:00,20.0,13.0,-100.00,WNW,293,0.0,3.0,75,0.00,,,0.00,34.000000,,2013-01-28 17:22:00,
2013-01-28 10:32:00,20.0,13.0,-100.00,WNW,293,0.0,3.0,75,0.00,,,0.00,34.000000,,2013-01-28 17:32:00,
2013-01-28 10:41:00,20.0,13.0,-100.00,WNW,293,0.0,3.0,75,0.00,,,0.00,34.000000,,2013-01-28 17:41:00,
2013-01-28 10:52:00,19.0,11.0,-100.00,NW,320,1.0,5.0,70,0.00,,,0.00,61.000000,,2013-01-28 17:52:00,
2013-01-28 11:23:00,19.0,11.0,-100.00,NW,320,1.0,5.0,70,0.00,,,0.00,61.000000,,2013-01-28 18:23:00,
2013-01-28 11:33:00,19.0,11.0,-100.00,NW,320,1.0,5.0,70,0.00,,,0.00,61.000000,,2013-01-28 18:33:00,
2013-01-28 11:42:00,19.0,11.0,-100.00,NW,320,1.0,5.0,70,0.00,,,0.00,61.000000,,2013-01-28 18:42:00,
2013-01-28 11:52:00,22.0,11.0,-100.00,WNW,285,6.0,11.0,61,0.00,,,0.00,98.000000,,2013-01-28 18:52:00,
2013-01-28 12:22:00,22.0,11.0,-100.00,WNW,285,6.0,11.0,61,0.00,,,0.00,98.000000,,2013-01-28 19:22:00,
2013-01-28 12:32:00,22.0,11.0,-100.00,WNW,285,6.0,11.0,61,0.00,,,0.00,98.000000,,2013-01-28 19:32:00,
2013-01-28 12:42:00,22.0,11.0,-100.00,WNW,285,6.0,11.0,61,0.00,,,0.00,98.000000,,2013-01-28 19:42:00,
2013-01-28 12:52:00,21.0,7.0,-100.00,West,276,6.0,12.0,54,0.00,,,0.00,85.000000,,2013-01-28 19:52:00,
2013-01-28 13:22:00,21.0,7.0,-100.00,West,276,6.0,12.0,54,0.00,,,0.00,85.000000,,2013-01-28 20:22:00,
2013-01-28 13:33:00,21.0,7.0,-100.00,West,276,6.0,12.0,54,0.00,,,0.00,85.000000,,2013-01-28 20:33:00,
2013-01-28 13:42:00,21.0,7.0,-100.00,West,276,6.0,12.0,54,0.00,,,0.00,85.000000,,2013-01-28 20:42:00,
2013-01-28 13:52:00,22.0,8.0,-100.00,West,278,5.0,11.0,53,0.00,,,0.00,101.000000,,2013-01-28 20:52:00,
2013-01-28 14:22:00,22.0,8.0,-100.00,West,278,5.0,11.0,53,0.00,,,0.00,101.000000,,2013-01-28 21:22:00,
2013-01-28 14:33:00,22.0,8.0,-100.00,West,278,5.0,11.0,53,0.00,,,0.00,101.000000,,2013-01-28 21:33:00,
2013-01-28 14:42:00,22.0,8.0,-100.00,West,278,5.0,11.0,53,0.00,,,0.00,101.000000,,2013-01-28 21:42:00,
2013-01-28 14:52:00,20.0,7.0,-100.00,West,278,5.0,12.0,57,0.00,,,0.00,67.000000,,2013-01-28 21:52:00,
2013-01-28 15:22:00,20.0,7.0,-100.00,West,278,5.0,12.0,57,0.00,,,0.00,67.000000,,2013-01-28 22:22:00,
2013-01-28 15:32:00,20.0,7.0,-100.00,West,278,5.0,12.0,57,0.00,,,0.00,67.000000,,2013-01-28 22:32:00,
2013-01-28 15:42:00,20.0,7.0,-100.00,West,278,5.0,12.0,57,0.00,,,0.00,67.000000,,2013-01-28 22:42:00,
2013-01-28 15:52:00,19.0,7.0,-100.00,West,261,5.0,13.0,58,0.00,,,0.00,39.000000,,2013-01-28 22:52:00,
2013-01-28 16:11:00,19.0,7.0,-100.00,West,261,5.0,13.0,58,0.00,,,0.00,39.000000,,2013-01-28 23:11:00,
2013-01-28 16:22:00,19.0,7.0,-100.00,West,261,5.0,13.0,58,0.00,,,0.00,39.000000,,2013-01-28 23:22:00,
2013-01-28 16:32:00,19.0,7.0,-100.00,West,261,5.0,13.0,58,0.00,,,0.00,39.000000,,2013-01-28 23:32:00,
2013-01-28 16:42:00,19.0,7.0,-100.00,West,261,5.0,13.0,58,0.00,,,0.00,39.000000,,2013-01-28 23:42:00,
2013-01-28 17:12:00,14.0,5.0,-100.00,West,259,4.0,15.0,68,0.00,,,0.00,14.000000,,2013-01-29 00:12:00,
2013-01-28 17:22:00,14.0,5.0,-100.00,West,259,4.0,15.0,68,0.00,,,0.00,14.000000,,2013-01-29 00:22:00,
2013-01-28 17:32:00,14.0,5.0,-100.00,West,259,4.0,15.0,68,0.00,,,0.00,14.000000,,2013-01-29 00:32:00,
2013-01-28 17:41:00,14.0,5.0,-100.00,West,259,4.0,15.0,68,0.00,,,0.00,14.000000,,2013-01-29 00:41:00,
2013-01-28 17:51:00,14.0,5.0,-100.00,West,259,4.0,15.0,68,0.00,,,0.00,14.000000,,2013-01-29 00:51:00,
2013-01-28 17:52:00,14.0,4.0,-100.00,West,276,7.0,12.0,65,0.00,,,0.00,1.000000,,2013-01-29 00:52:00,
2013-01-28 18:11:00,14.0,4.0,-100.00,West,276,7.0,12.0,65,0.00,,,0.00,1.000000,,2013-01-29 01:11:00,
2013-01-28 18:22:00,14.0,4.0,-100.00,West,276,7.0,12.0,65,0.00,,,0.00,1.000000,,2013-01-29 01:22:00,
2013-01-28 18:32:00,14.0,4.0,-100.00,West,276,7.0,12.0,65,0.00,,,0.00,1.000000,,2013-01-29 01:32:00,
2013-01-28 18:42:00,14.0,4.0,-100.00,West,276,7.0,12.0,65,0.00,,,0.00,1.000000,,2013-01-29 01:42:00,
2013-01-28 19:52:00,8.0,3.0,-100.00,WNW,293,0.0,5.0,78,-99.99,,,0.00,0.000000,,2013-01-29 02:52:00,
2013-01-28 20:21:00,8.0,3.0,-100.00,WNW,293,0.0,5.0,78,-99.99,,,0.00,0.000000,,2013-01-29 03:21:00,
2013-01-28 20:31:00,8.0,3.0,-100.00,WNW,293,0.0,5.0,78,-99.99,,,0.00,0.000000,,2013-01-29 03:31:00,
2013-01-28 20:42:00,8.0,3.0,-100.00,WNW,293,0.0,5.0,78,-99.99,,,0.00,0.000000,,2013-01-29 03:42:00,
2013-01-28 21:11:00,9.0,2.0,-100.00,SE,138,0.0,5.0,72,0.00,,,0.00,0.000000,,2013-01-29 04:11:00,
2013-01-28 21:21:00,9.0,2.0,-100.00,SE,138,0.0,5.0,72,0.00,,,0.00,0.000000,,2013-01-29 04:21:00,
2013-01-28 21:32:00,9.0,2.0,-100.00,SE,138,0.0,5.0,72,0.00,,,0.00,0.000000,,2013-01-29 04:32:00,
2013-01-28 21:41:00,9.0,2.0,-100.00,SE,138,0.0,5.0,72,0.00,,,0.00,0.000000,,2013-01-29 04:41:00,
2013-01-28 21:51:00,9.0,2.0,-100.00,SE,138,0.0,5.0,72,0.00,,,0.00,0.000000,,2013-01-29 04:51:00,
2013-01-28 21:52:00,6.0,2.0,-100.00,East,90,0.0,5.0,82,0.00,,,0.00,0.000000,,2013-01-29 04:52:00,
2013-01-28 22:21:00,6.0,2.0,-100.00,East,90,0.0,5.0,82,0.00,,,0.00,0.000000,,2013-01-29 05:21:00,
2013-01-28 22:32:00,6.0,2.0,-100.00,East,90,0.0,5.0,82,0.00,,,0.00,0.000000,,2013-01-29 05:32:00,
2013-01-28 22:42:00,6.0,2.0,-100.00,East,90,0.0,5.0,82,0.00,,,0.00,0.000000,,2013-01-29 05:42:00,
2013-01-28 22:52:00,6.0,2.0,-100.00,East,89,0.0,4.0,82,0.00,,,0.00,0.000000,,2013-01-29 05:52:00,
2013-01-28 23:11:00,6.0,2.0,-100.00,East,89,0.0,4.0,82,0.00,,,0.00,0.000000,,2013-01-29 06:11:00,
2013-01-28 23:21:00,6.0,2.0,-100.00,East,89,0.0,4.0,82,0.00,,,0.00,0.000000,,2013-01-29 06:21:00,
2013-01-28 23:31:00,6.0,2.0,-100.00,East,89,0.0,4.0,82,0.00,,,0.00,0.000000,,2013-01-29 06:31:00,
2013-01-28 23:41:00,6.0,2.0,-100.00,East,89,0.0,4.0,82,0.00,,,0.00,0.000000,,2013-01-29 06:41:00,